Colorado Springs, CO (80942)

9:59 PM MDT on September 03, 2015 (GMT -0600)
Old North End | | Change Station
CLOSE
Current Station
Personal Weather Station
Location: Colorado Springs, CO
Elevation: 6086 ft
Nearby Weather Stations

Elev 6086 ft 38.85 °N, 104.82 °W | Updated 53 seconds ago

Mostly Cloudy
Mostly Cloudy
62.6 °F
Feels Like 62.6 °F
N
0.0
Wind Variable Wind from WSW
Gusts 0.0 mph

Today
High -- | Low -- °F
--% Chance of Precip.
Yesterday
High -- | Low -- °F
Precip. -- in
6:29 AM 7:26 PM
Waning Gibbous, 64% visible
Pressure 29.80 in
Visibility 10.0 miles
Clouds Few 10000 ft
Scattered Clouds 20000 ft
Dew Point 55 °F
Humidity 76%
Rainfall 0.00 in
Snow Depth Not available.
UV 0 out of 12
Pollen 10.40 out of 12
Air Quality Not available.
Flu Activity Not available.
METAR KCOS 040354Z 35008KT 10SM FEW100 SCT200 18/11 A3007 RMK AO2 SLP090 T01780106 $
Pressure 29.80 in
Visibility 10.0 miles
Clouds Few 10000 ft
Scattered Clouds 20000 ft
Dew Point 55 °F
Humidity 76%
Rainfall 0.00 in
Snow Depth Not available.
UV 0 out of 12
Pollen 10.40 out of 12
Air Quality Not available.
Flu Activity Not available.
METAR KCOS 040354Z 35008KT 10SM FEW100 SCT200 18/11 A3007 RMK AO2 SLP090 T01780106 $

10-Day Weather Forecast

×

Almanac

Astronomy

Sep. 03, 2015 Rise Set
Actual Time
Civil Twilight
Nautical Twilight
Astronomical Twilight
Moon
Length of Visible Light
Length of Day
Tomorrow will be .
, % of the Moon is Illuminated

Today's Extremes

State Highs State Lows

Community

WunderPhotos

Upload Photos

1,852,118 photos uploaded!

WunderBlogs® & News

Nearby

Air Quality

  Air Quality AQ Index Pollutant
Not available.

Snow Depth

Station Depth Elevation

Earthquake Activity

City Distance Mag. Time & Date
Minimum magnitude displayed is 2.5.

Coastal Water Temperatures

Place Temperature

Stations

Nearby Weather Stations

Station Location Temp. Windchill Dew Point Humidity Wind Precip. Elev Updated Type